Northside, Ohio
Current Conditions -  °F | °C
As of 7:18 PM on Wednesday 26 Nov 2014 (Local Time) from KI69 Reporting Station
Clear Clear  
Wind Chill: 34°   Ceiling: Unl
Heat Index: 34°   Visibility: 10mi
Dew Point: 30°   Wind: 0mph
Humidity: 87%   Direction: NA
Pressure: 30.03"   Gusts: NA
Location:  39.1683°N, 84.5521°W
Report Text: KI69 270018Z AUTO 00000KT 10SM CLR 01/M01 A3003 RMK AO1
Loading
Personal Weather Stations






























Interactive Weather Map New forecast layout! Learn more

10-Day Weather Forecast

Advertisements
Track Severe Weather on mobile